Time;durP1;ratioP1;P1;durP2;ratioP2;P2;SDS_P1;SDS_P2;PMS_P1;PMS_P2;Temp;Humidity;BMP_temperature;BMP_pressure;BME280_temperature;BME280_humidity;BME280_pressure;Samples;Min_cycle;Max_cycle;Signal;HPM_P1;HPM_P2
2022/07/04 00:00:46;;;;;;;4.47;3.10;;;;;;;21.82;54.12;97308.28;5067149;28;20210;-71
2022/07/04 00:03:13;;;;;;;5.00;2.90;;;;;;;21.60;54.42;97318.13;5066285;28;20181;-70
2022/07/04 00:05:40;;;;;;;4.03;3.30;;;;;;;21.31;55.26;97322.44;5066746;28;20194;-70
2022/07/04 00:08:07;;;;;;;5.77;3.03;;;;;;;21.03;56.38;97324.72;5066470;28;20717;-70
2022/07/04 00:10:34;;;;;;;3.87;2.80;;;;;;;21.01;57.10;97305.56;5066697;28;20699;-69
2022/07/04 00:13:01;;;;;;;7.43;3.27;;;;;;;20.94;57.75;97314.91;5067355;28;20193;-71
2022/07/04 00:15:28;;;;;;;5.07;3.10;;;;;;;20.59;59.46;97316.97;5052332;28;20549;-69
2022/07/04 00:17:55;;;;;;;6.23;3.67;;;;;;;20.44;60.16;97312.97;5070721;28;20273;-70
2022/07/04 00:20:22;;;;;;;7.33;3.60;;;;;;;20.23;60.69;97319.94;5070114;28;20288;-69
2022/07/04 00:22:49;;;;;;;6.40;4.00;;;;;;;20.15;61.35;97296.84;5070287;28;20196;-69
2022/07/04 00:25:16;;;;;;;5.33;4.10;;;;;;;20.21;61.18;97296.41;5051992;28;20193;-69
2022/07/04 00:27:43;;;;;;;5.90;3.60;;;;;;;20.19;60.86;97300.97;5070169;28;20230;-69
2022/07/04 00:30:10;;;;;;;5.50;4.10;;;;;;;20.00;62.03;97299.88;5070160;28;20227;-69
2022/07/04 00:32:37;;;;;;;7.63;3.80;;;;;;;19.98;62.98;97307.03;5051782;28;20192;-68
2022/07/04 00:35:05;;;;;;;6.87;3.90;;;;;;;20.00;62.15;97302.50;5070483;28;20587;-69
2022/07/04 00:37:33;;;;;;;10.67;3.90;;;;;;;20.01;62.39;97301.56;5069740;28;20216;-69
2022/07/04 00:40:00;;;;;;;5.47;4.30;;;;;;;20.01;61.94;97298.91;5070329;28;20258;-69
2022/07/04 00:42:29;;;;;;;4.90;3.83;;;;;;;20.11;62.39;97284.91;5052353;28;20189;-70
2022/07/04 00:44:56;;;;;;;5.17;4.33;;;;;;;20.47;61.77;97294.28;5070036;28;20193;-70
2022/07/04 00:47:23;;;;;;;8.47;4.70;;;;;;;20.59;61.82;97293.28;5051932;28;20228;-70
2022/07/04 00:49:49;;;;;;;6.83;4.47;;;;;;;20.85;61.44;97284.09;5069719;28;20190;-70
2022/07/04 00:52:17;;;;;;;5.30;4.73;;;;;;;21.26;60.36;97283.28;5070132;28;20197;-70
2022/07/04 00:54:45;;;;;;;5.10;4.60;;;;;;;21.41;60.53;97286.44;5069719;28;20189;-70
2022/07/04 00:57:12;;;;;;;11.13;5.07;;;;;;;21.53;60.61;97291.50;5052029;28;20621;-69
2022/07/04 00:59:39;;;;;;;6.17;4.27;;;;;;;21.53;60.65;97280.09;5069601;28;20687;-70
2022/07/04 01:02:07;;;;;;;6.43;5.17;;;;;;;21.51;61.12;97282.03;5069559;28;20869;-70
2022/07/04 01:04:35;;;;;;;5.90;5.00;;;;;;;21.65;61.59;97282.53;5069685;28;20594;-70
2022/07/04 01:07:04;;;;;;;6.90;4.97;;;;;;;21.73;61.34;97276.59;5069197;28;20312;-70
2022/07/04 01:09:31;;;;;;;8.43;4.73;;;;;;;21.68;62.33;97284.03;5051602;28;20843;-70
2022/07/04 01:11:58;;;;;;;7.60;5.10;;;;;;;21.40;63.37;97268.94;5069338;28;20724;-70
2022/07/04 01:14:25;;;;;;;6.57;5.00;;;;;;;21.44;63.62;97276.44;5069720;28;20286;-69
2022/07/04 01:16:51;;;;;;;7.20;4.57;;;;;;;21.56;63.24;97274.56;5069467;28;20525;-69
2022/07/04 01:19:19;;;;;;;5.57;4.63;;;;;;;21.50;63.55;97269.81;5069212;28;20183;-70
2022/07/04 01:21:46;;;;;;;6.77;4.80;;;;;;;21.34;63.99;97267.66;5069261;28;20181;-69
2022/07/04 01:24:13;;;;;;;7.47;4.43;;;;;;;21.28;64.22;97262.09;5068225;28;20574;-69
2022/07/04 01:26:40;;;;;;;4.77;4.20;;;;;;;21.28;63.11;97259.44;5068835;28;20225;-69
2022/07/04 01:29:07;;;;;;;7.47;5.10;;;;;;;20.77;63.59;97268.06;5069327;28;20601;-69
2022/07/04 01:31:33;;;;;;;5.97;4.70;;;;;;;20.22;65.09;97258.63;5051464;28;20212;-69
2022/07/04 01:34:01;;;;;;;6.17;4.47;;;;;;;19.72;67.11;97274.91;5068914;28;20197;-69
2022/07/04 01:36:28;;;;;;;5.93;4.50;;;;;;;19.58;68.33;97264.63;5068762;28;20713;-69
2022/07/04 01:38:56;;;;;;;7.40;4.17;;;;;;;19.28;69.52;97270.47;5068705;28;20200;-69
2022/07/04 01:41:23;;;;;;;4.93;4.43;;;;;;;19.17;70.06;97270.44;5068720;28;20515;-69
2022/07/04 01:43:50;;;;;;;7.03;5.10;;;;;;;19.03;70.91;97270.66;5069000;28;20744;-69
2022/07/04 01:46:17;;;;;;;5.30;4.40;;;;;;;19.09;70.88;97277.22;5068503;28;20600;-69
2022/07/04 01:48:44;;;;;;;5.07;4.50;;;;;;;19.04;70.61;97277.56;5069021;28;20286;-69
2022/07/04 01:51:11;;;;;;;7.63;5.13;;;;;;;19.05;70.32;97266.13;5068716;28;20192;-69
2022/07/04 01:53:38;;;;;;;7.93;4.53;;;;;;;18.91;71.68;97274.22;5068744;28;20191;-69
2022/07/04 01:56:07;;;;;;;7.00;4.97;;;;;;;18.91;71.31;97271.59;5050590;28;20205;-68
2022/07/04 01:58:34;;;;;;;5.87;5.03;;;;;;;19.09;70.83;97261.47;5068834;28;20272;-68
2022/07/04 02:03:47;;;;;;;5.67;4.80;;;;;;;18.92;71.44;97262.75;5068699;28;20188;-69
2022/07/04 02:06:14;;;;;;;5.93;4.60;;;;;;;19.06;70.50;97265.16;5068690;28;20278;-68
2022/07/04 02:11:26;;;;;;;7.90;4.70;;;;;;;18.84;71.71;97256.41;5068523;28;20223;-69
2022/07/04 02:13:53;;;;;;;7.00;5.50;;;;;;;18.90;71.58;97269.91;5069576;28;20253;-69
2022/07/04 02:16:40;;;;;;;11.07;6.20;;;;;;;19.02;71.05;97268.97;5058704;28;20919;-69
2022/07/04 02:19:07;;;;;;;11.83;5.83;;;;;;;18.99;70.87;97271.84;5074041;28;20193;-70
2022/07/04 02:21:34;;;;;;;8.13;6.20;;;;;;;19.21;70.77;97274.50;5057700;28;20257;-69
2022/07/04 02:24:01;;;;;;;7.70;5.43;;;;;;;19.24;69.98;97271.66;5068987;28;20979;-70
2022/07/04 02:26:28;;;;;;;6.80;6.03;;;;;;;19.42;68.99;97267.63;5068715;28;20241;-69
2022/07/04 02:28:55;;;;;;;7.53;5.50;;;;;;;19.54;68.04;97270.28;5068658;28;20192;-70
2022/07/04 02:31:22;;;;;;;7.00;5.63;;;;;;;19.52;68.12;97277.41;5068926;28;20228;-70
2022/07/04 02:33:49;;;;;;;8.93;5.80;;;;;;;19.49;68.06;97274.06;5050428;28;20195;-71
2022/07/04 02:36:16;;;;;;;8.20;5.50;;;;;;;19.74;67.33;97275.63;5068183;28;20216;-70
2022/07/04 02:38:43;;;;;;;10.23;5.30;;;;;;;19.81;67.27;97284.72;5068106;28;20191;-71
2022/07/04 02:41:10;;;;;;;7.37;5.40;;;;;;;19.84;67.17;97291.53;5067842;28;20204;-71
2022/07/04 02:43:37;;;;;;;11.03;5.63;;;;;;;19.85;67.29;97282.66;5068151;28;20219;-70
2022/07/04 02:46:10;;;;;;;11.20;5.23;;;;;;;19.74;67.56;97269.56;5050390;28;20609;-70
2022/07/04 02:48:41;;;;;;;7.63;4.73;;;;;;;19.71;67.88;97270.63;5051569;28;20263;-71
2022/07/04 02:51:09;;;;;;;5.70;5.10;;;;;;;19.55;68.51;97277.19;5068253;28;20193;-70
2022/07/04 02:53:36;;;;;;;7.13;5.53;;;;;;;19.61;68.47;97287.22;5067828;28;20283;-70
2022/07/04 02:56:04;;;;;;;6.57;5.13;;;;;;;19.68;68.09;97288.44;5067977;28;20238;-70
2022/07/04 02:58:32;;;;;;;5.33;4.60;;;;;;;19.49;68.44;97279.31;5049603;28;20200;-70
2022/07/04 03:00:59;;;;;;;5.97;5.27;;;;;;;19.27;68.59;97266.16;5068673;28;20347;-70
2022/07/04 03:03:27;;;;;;;7.73;5.40;;;;;;;19.37;68.51;97284.72;5067428;28;20577;-70
2022/07/04 03:05:54;;;;;;;8.97;5.40;;;;;;;19.16;69.36;97286.31;5068160;28;20219;-70
2022/07/04 03:08:21;;;;;;;8.97;5.73;;;;;;;18.90;70.62;97288.28;5066931;28;20315;-71
2022/07/04 03:10:50;;;;;;;7.60;5.90;;;;;;;18.82;70.95;97281.91;5067421;28;20224;-70
2022/07/04 03:13:18;;;;;;;7.80;5.50;;;;;;;18.87;71.06;97274.56;5067065;28;20199;-69
2022/07/04 03:15:45;;;;;;;7.33;5.40;;;;;;;19.35;69.37;97292.69;5067068;28;20194;-70
2022/07/04 03:18:12;;;;;;;9.30;5.60;;;;;;;19.16;69.35;97287.16;5067469;28;20199;-70
2022/07/04 03:20:39;;;;;;;12.43;6.30;;;;;;;19.10;69.67;97292.03;5067913;28;20192;-69
2022/07/04 03:23:06;;;;;;;9.73;5.60;;;;;;;19.09;69.68;97287.72;5049803;28;20228;-69
2022/07/04 03:25:33;;;;;;;8.00;6.57;;;;;;;19.05;70.07;97288.91;5049678;28;20738;-69
2022/07/04 03:28:01;;;;;;;10.83;6.13;;;;;;;19.23;69.47;97288.34;5049930;28;20228;-69
2022/07/04 03:30:28;;;;;;;8.10;5.73;;;;;;;19.65;67.89;97291.28;5049130;28;20192;-69
2022/07/04 03:32:55;;;;;;;10.60;6.23;;;;;;;19.88;67.44;97295.59;5064068;28;20197;-69
2022/07/04 03:35:23;;;;;;;7.30;6.57;;;;;;;19.55;67.73;97277.19;5065487;28;20220;-69
2022/07/04 03:37:51;;;;;;;10.07;6.30;;;;;;;19.33;68.63;97288.50;5042457;28;20222;-69
2022/07/04 03:40:19;;;;;;;7.77;5.97;;;;;;;19.44;68.45;97288.53;5047189;28;20187;-70
2022/07/04 03:42:46;;;;;;;11.33;7.10;;;;;;;19.63;67.27;97290.56;5045641;28;20632;-69
2022/07/04 03:45:14;;;;;;;7.50;5.93;;;;;;;19.67;66.75;97276.22;5047127;28;20256;-69
2022/07/04 03:47:41;;;;;;;9.00;6.40;;;;;;;19.74;66.77;97272.19;5046063;28;20251;-69
2022/07/04 03:50:08;;;;;;;9.53;6.23;;;;;;;20.05;66.03;97281.94;5046861;28;20190;-69
2022/07/04 03:52:37;;;;;;;9.50;5.77;;;;;;;20.59;64.02;97288.03;5045283;28;20190;-69
2022/07/04 03:55:04;;;;;;;12.27;6.13;;;;;;;20.92;63.10;97276.50;5046815;28;20244;-69
2022/07/04 03:57:31;;;;;;;9.60;6.53;;;;;;;20.90;62.97;97275.78;5046734;28;20186;-70
2022/07/04 03:59:58;;;;;;;6.73;6.03;;;;;;;21.08;62.63;97288.28;5046574;28;20251;-69
2022/07/04 04:02:25;;;;;;;7.83;6.50;;;;;;;21.11;62.62;97289.00;5046633;28;20202;-68
2022/07/04 04:07:37;;;;;;;11.47;6.30;;;;;;;21.01;63.12;97299.44;5025689;28;20230;-70
2022/07/04 04:10:05;;;;;;;12.40;7.20;;;;;;;21.08;62.62;97294.53;5027159;28;20187;-69
2022/07/04 04:12:32;;;;;;;8.40;6.30;;;;;;;21.28;62.10;97291.06;5025652;28;20212;-70
2022/07/04 04:14:59;;;;;;;8.00;6.53;;;;;;;21.38;61.94;97291.94;5026857;28;20187;-71
2022/07/04 04:17:26;;;;;;;8.03;6.33;;;;;;;21.65;61.15;97295.72;5026503;28;20197;-71
2022/07/04 04:19:53;;;;;;;9.80;6.77;;;;;;;21.48;61.33;97285.78;5026964;28;20207;-71
2022/07/04 04:22:20;;;;;;;9.70;7.13;;;;;;;21.49;61.70;97299.78;5026653;28;20271;-71
2022/07/04 04:24:47;;;;;;;10.20;7.20;;;;;;;21.74;60.92;97294.91;5030852;28;20187;-72
2022/07/04 04:27:13;;;;;;;8.63;7.00;;;;;;;21.84;60.85;97300.25;5037215;28;20226;-71
2022/07/04 04:29:40;;;;;;;8.07;6.40;;;;;;;22.05;60.23;97302.84;5046791;28;20204;-71
2022/07/04 04:32:08;;;;;;;8.67;6.80;;;;;;;22.21;59.86;97304.00;5026218;28;20258;-71
2022/07/04 04:34:35;;;;;;;10.00;6.50;;;;;;;22.50;59.17;97302.22;5026173;28;20203;-71
2022/07/04 04:37:02;;;;;;;6.37;5.77;;;;;;;22.82;58.25;97299.38;5052519;28;20214;-71
2022/07/04 04:39:29;;;;;;;10.30;5.97;;;;;;;22.86;57.94;97292.81;5066302;28;20635;-71
2022/07/04 04:41:56;;;;;;;10.90;5.63;;;;;;;23.19;57.21;97302.94;5066756;28;20192;-70
2022/07/04 04:44:23;;;;;;;7.63;6.20;;;;;;;23.52;56.01;97303.47;5066035;28;20243;-71
2022/07/04 04:46:58;;;;;;;9.30;6.67;;;;;;;23.74;55.32;97293.38;5066081;28;20220;-72
2022/07/04 04:49:28;;;;;;;7.57;6.77;;;;;;;23.97;54.52;97278.78;5067653;28;20534;-72
2022/07/04 04:51:57;;;;;;;7.23;6.40;;;;;;;23.68;54.30;97256.09;5048488;28;20199;-72
2022/07/04 04:54:24;;;;;;;10.50;6.33;;;;;;;23.77;55.17;97289.59;5015692;28;20799;-71
2022/07/04 04:56:51;;;;;;;16.70;6.57;;;;;;;23.88;55.25;97292.06;5065855;28;20198;-71
2022/07/04 04:59:18;;;;;;;8.93;7.13;;;;;;;24.44;53.83;97299.88;5066958;28;20194;-71
2022/07/04 05:01:45;;;;;;;11.90;6.70;;;;;;;24.55;52.86;97289.06;5035106;28;20198;-71
2022/07/04 05:04:14;;;;;;;7.80;5.80;;;;;;;24.77;53.02;97288.66;5051515;28;20226;-71
2022/07/04 05:06:41;;;;;;;11.47;5.80;;;;;;;25.28;51.81;97298.53;5069583;28;20185;-71
2022/07/04 05:09:08;;;;;;;6.30;5.13;;;;;;;25.42;51.19;97284.72;5051361;28;20706;-71
2022/07/04 05:11:35;;;;;;;10.03;5.50;;;;;;;25.28;51.64;97285.28;5069693;28;20189;-71
2022/07/04 05:14:02;;;;;;;5.33;4.83;;;;;;;25.33;51.81;97290.91;5051139;28;20744;-71
2022/07/04 05:16:30;;;;;;;7.37;5.03;;;;;;;25.54;51.96;97296.75;5069359;28;20195;-71
2022/07/04 05:18:57;;;;;;;8.93;5.20;;;;;;;25.74;50.50;97288.41;5051576;28;20212;-71
2022/07/04 05:21:26;;;;;;;8.23;5.53;;;;;;;25.63;51.12;97298.47;5035060;28;20699;-71
2022/07/04 05:23:53;;;;;;;7.37;5.67;;;;;;;25.35;51.45;97291.63;5018232;28;20203;-71
2022/07/04 05:26:20;;;;;;;7.17;5.73;;;;;;;25.33;51.51;97291.75;5069038;28;20219;-71
2022/07/04 05:28:47;;;;;;;6.60;5.57;;;;;;;25.33;51.92;97283.81;5069338;28;20788;-71
2022/07/04 05:31:14;;;;;;;8.17;6.50;;;;;;;25.90;50.47;97286.84;5069063;28;20192;-71
2022/07/04 05:33:41;;;;;;;7.00;6.10;;;;;;;26.15;49.62;97291.28;5069230;28;20220;-71
2022/07/04 05:36:09;;;;;;;10.13;5.80;;;;;;;26.07;49.18;97291.22;5068812;28;20220;-71
2022/07/04 05:38:36;;;;;;;7.37;5.67;;;;;;;26.31;48.21;97281.56;5068792;28;20565;-70
2022/07/04 05:41:03;;;;;;;9.13;5.30;;;;;;;26.34;48.49;97288.34;5050595;28;20192;-71
2022/07/04 05:43:30;;;;;;;5.90;5.30;;;;;;;26.54;48.22;97271.16;5068700;28;20222;-71
2022/07/04 05:45:57;;;;;;;7.93;5.83;;;;;;;26.61;47.72;97275.63;5035022;28;20580;-71
2022/07/04 05:48:24;;;;;;;10.47;6.60;;;;;;;26.99;47.56;97279.53;5068815;28;20252;-71
2022/07/04 05:50:51;;;;;;;12.20;8.67;;;;;;;27.30;46.21;97283.19;5069043;28;20185;-71
2022/07/04 05:53:18;;;;;;;10.63;7.97;;;;;;;27.53;45.82;97279.84;5068489;28;20200;-71
2022/07/04 05:55:45;;;;;;;13.90;6.93;;;;;;;27.76;44.72;97284.28;5068463;28;20197;-71
2022/07/04 05:58:13;;;;;;;10.53;5.80;;;;;;;27.83;44.12;97279.09;5068242;28;20190;-71
2022/07/04 06:00:40;;;;;;;13.90;5.33;;;;;;;27.80;44.42;97282.94;5068947;28;20185;-71
2022/07/04 06:03:08;;;;;;;8.30;5.13;;;;;;;27.77;43.46;97277.97;5068731;28;20193;-72
2022/07/04 06:05:35;;;;;;;6.77;5.40;;;;;;;27.76;44.56;97273.63;5050425;28;20238;-71
2022/07/04 06:08:02;;;;;;;10.97;4.70;;;;;;;27.70;44.42;97253.00;5033631;28;20229;-72
2022/07/04 06:10:33;;;;;;;6.53;4.30;;;;;;;27.73;44.22;97267.81;5068153;28;20552;-72
2022/07/04 06:13:16;;;;;;;10.77;4.80;;;;;;;27.88;43.92;97264.25;5036205;28;20284;-72
2022/07/04 06:15:43;;;;;;;5.77;4.50;;;;;;;27.95;44.39;97267.06;5050500;28;20189;-72
2022/07/04 06:18:15;;;;;;;7.30;4.73;;;;;;;28.17;43.48;97248.53;5068202;28;20185;-72
2022/07/04 06:20:54;;;;;;;9.00;5.87;;;;;;;28.38;43.55;97258.56;5018813;28;20204;-72
2022/07/04 06:23:21;;;;;;;7.93;4.27;;;;;;;28.50;42.77;97251.84;5067235;28;20261;-71
2022/07/04 06:25:48;;;;;;;6.37;4.33;;;;;;;28.44;42.99;97257.88;5067528;28;20564;-71
2022/07/04 06:28:15;;;;;;;6.90;4.13;;;;;;;28.45;42.16;97253.38;5067007;28;20217;-71
2022/07/04 06:31:02;;;;;;;6.37;4.30;;;;;;;28.73;42.15;97250.03;5049617;28;20193;-71
2022/07/04 06:33:30;;;;;;;5.47;3.97;;;;;;;28.76;41.97;97255.03;5000806;28;20270;-71
2022/07/04 06:35:58;;;;;;;6.83;4.47;;;;;;;28.66;42.45;97250.94;5067600;28;20295;-71
2022/07/04 06:38:29;;;;;;;15.67;5.73;;;;;;;28.88;42.98;97245.59;5067968;28;20220;-71
2022/07/04 06:40:59;;;;;;;14.53;5.30;;;;;;;28.95;42.30;97257.19;5067330;28;20726;-71
2022/07/04 06:43:26;;;;;;;6.70;5.83;;;;;;;28.85;42.65;97256.63;5067405;28;20643;-71
2022/07/04 06:45:54;;;;;;;8.90;5.13;;;;;;;29.00;42.71;97251.34;5049175;28;20197;-71
2022/07/04 06:48:21;;;;;;;7.30;5.00;;;;;;;29.01;42.40;97252.19;5067118;28;20265;-72
2022/07/04 06:51:00;;;;;;;10.33;8.17;;;;;;;29.31;41.67;97252.09;5033021;28;20201;-71
2022/07/04 06:53:33;;;;;;;5.23;4.43;;;;;;;29.28;41.06;97217.78;5048603;28;20631;-71
2022/07/04 06:56:12;;;;;;;6.80;4.60;;;;;;;29.09;41.55;97177.41;5049078;28;20276;-71
2022/07/04 06:58:39;;;;;;;7.57;4.30;;;;;;;29.66;41.80;97237.22;5048942;28;20680;-71
2022/07/04 07:01:06;;;;;;;5.97;4.70;;;;;;;29.95;41.32;97253.25;5066831;28;20293;-72
2022/07/04 07:03:33;;;;;;;7.37;5.13;;;;;;;30.03;40.33;97244.31;5049060;28;20295;-70
2022/07/04 07:06:02;;;;;;;6.67;4.63;;;;;;;30.11;40.47;97233.56;5032793;28;20310;-71
2022/07/04 07:08:30;;;;;;;12.57;6.57;;;;;;;30.11;41.35;97241.56;5066843;28;20213;-71
2022/07/04 07:11:12;;;;;;;9.87;5.57;;;;;;;30.19;41.45;97231.56;5066888;28;20718;-71
2022/07/04 07:13:41;;;;;;;5.73;4.80;;;;;;;30.31;39.95;97238.16;5066847;28;20223;-72
2022/07/04 07:16:09;;;;;;;7.90;4.77;;;;;;;30.31;39.88;97230.13;5066431;28;20688;-71
2022/07/04 07:18:36;;;;;;;8.23;4.10;;;;;;;30.55;39.34;97226.25;5048886;28;20591;-71
2022/07/04 07:21:04;;;;;;;6.30;4.30;;;;;;;30.65;38.23;97225.94;5048623;28;20190;-71
2022/07/04 07:23:31;;;;;;;9.50;4.20;;;;;;;30.78;38.53;97226.06;5048646;28;20182;-71
2022/07/04 07:25:59;;;;;;;9.87;4.30;;;;;;;30.75;38.92;97223.78;5015744;28;20193;-72
2022/07/04 07:28:26;;;;;;;8.10;4.90;;;;;;;30.79;38.04;97225.06;5066521;28;20224;-71
2022/07/04 07:30:53;;;;;;;9.13;5.03;;;;;;;30.80;36.98;97218.69;5066844;28;20650;-71
2022/07/04 07:33:20;;;;;;;7.13;4.07;;;;;;;30.86;36.66;97217.94;5048447;28;20278;-70
2022/07/04 07:35:47;;;;;;;8.00;4.80;;;;;;;30.91;35.90;97221.72;5065713;28;22455;-71
2022/07/04 07:38:14;;;;;;;7.60;5.43;;;;;;;30.83;34.70;97208.41;5031333;28;20204;-71
2022/07/04 07:40:41;;;;;;;6.27;4.70;;;;;;;30.91;34.48;97204.84;5047891;28;20192;-71
2022/07/04 07:43:08;;;;;;;10.60;3.90;;;;;;;30.91;35.43;97211.03;5031666;28;20197;-72
2022/07/04 07:45:35;;;;;;;5.80;4.60;;;;;;;30.87;37.04;97206.25;5065954;28;20197;-71
2022/07/04 07:48:03;;;;;;;15.93;6.17;;;;;;;30.83;37.15;97210.28;5048151;28;20199;-70
2022/07/04 07:50:30;;;;;;;10.70;6.37;;;;;;;30.93;36.65;97202.78;5066357;28;20199;-70
2022/07/04 07:52:58;;;;;;;5.47;4.33;;;;;;;31.15;36.68;97207.09;5031312;28;20197;-71
2022/07/04 07:55:25;;;;;;;6.23;4.23;;;;;;;30.89;34.95;97191.63;5047968;28;20189;-71
2022/07/04 07:57:53;;;;;;;6.37;4.60;;;;;;;31.25;33.74;97188.84;5031074;28;20177;-71
2022/07/04 08:00:20;;;;;;;6.67;5.30;;;;;;;31.40;34.63;97189.59;5066104;28;20193;-71
2022/07/04 08:05:57;;;;;;;8.32;4.70;;;;;;;31.51;34.35;97201.59;5066128;28;20273;-70
2022/07/04 08:08:24;;;;;;;5.23;4.10;;;;;;;31.53;34.47;97203.03;5047660;28;20232;-71
2022/07/04 08:10:51;;;;;;;5.68;4.20;;;;;;;31.24;34.46;97185.31;5047533;28;20221;-70
2022/07/04 08:13:18;;;;;;;9.63;6.95;;;;;;;31.50;34.25;97211.50;5065926;28;20804;-70
2022/07/04 08:15:46;;;;;;;9.00;4.67;;;;;;;31.36;34.20;97204.38;5065773;28;20197;-71
2022/07/04 08:18:15;;;;;;;6.10;4.33;;;;;;;31.11;34.71;97211.16;5047459;28;20197;-70
2022/07/04 08:20:43;;;;;;;6.82;4.38;;;;;;;31.07;35.43;97200.03;5030525;28;20193;-70
2022/07/04 08:23:29;;;;;;;8.68;5.28;;;;;;;31.38;35.44;97190.78;5065808;28;20177;-70
2022/07/04 08:25:56;;;;;;;11.43;7.20;;;;;;;31.67;34.85;97191.41;5065814;28;20194;-70
2022/07/04 08:28:24;;;;;;;7.63;4.63;;;;;;;31.60;33.69;97203.91;5047305;28;20220;-71
2022/07/04 08:30:51;;;;;;;14.80;9.52;;;;;;;31.65;34.30;97197.97;5066053;28;20185;-70
2022/07/04 08:33:21;;;;;;;6.30;4.22;;;;;;;31.80;33.16;97191.47;5047826;28;20625;-71
2022/07/04 08:35:51;;;;;;;7.20;4.22;;;;;;;31.80;32.87;97194.13;5051644;28;20233;-71
2022/07/04 08:38:18;;;;;;;9.32;5.03;;;;;;;31.75;33.56;97177.00;5069056;28;20186;-71
2022/07/04 08:40:47;;;;;;;9.73;5.70;;;;;;;31.74;33.54;97202.97;5070081;28;20196;-71
2022/07/04 08:43:15;;;;;;;11.25;4.80;;;;;;;31.79;33.04;97189.81;5034922;28;20284;-71
2022/07/04 08:45:47;;;;;;;9.90;4.65;;;;;;;31.74;33.18;97197.59;5069572;28;20272;-71
2022/07/04 08:48:37;;;;;;;10.45;6.30;;;;;;;31.73;32.55;97192.47;5069799;28;20298;-71
2022/07/04 08:51:14;;;;;;;9.32;6.00;;;;;;;31.81;32.66;97194.97;5051077;28;20197;-71
2022/07/04 08:53:55;;;;;;;10.07;4.07;;;;;;;31.94;31.73;97192.38;5068827;28;20698;-71
2022/07/04 08:59:08;;;;;;;5.20;4.38;;;;;;;32.02;31.13;97194.91;5069175;28;20189;-71
2022/07/04 09:01:36;;;;;;;6.10;3.73;;;;;;;31.67;31.71;97196.75;5069311;28;20676;-71
2022/07/04 09:04:04;;;;;;;8.43;6.80;;;;;;;31.47;31.79;97206.50;5068772;28;20708;-71
2022/07/04 09:06:31;;;;;;;7.97;4.38;;;;;;;31.74;32.86;97200.28;5069355;28;20216;-71
2022/07/04 09:09:08;;;;;;;8.45;3.97;;;;;;;31.67;31.87;97196.75;5051055;28;20224;-72
2022/07/04 09:11:41;;;;;;;5.72;5.13;;;;;;;31.79;32.14;97187.13;5051010;28;20678;-72
2022/07/04 09:14:11;;;;;;;7.00;3.85;;;;;;;31.91;31.70;97177.50;5051024;28;20201;-71
2022/07/04 09:16:39;;;;;;;8.10;3.70;;;;;;;32.06;32.21;97185.44;5034149;28;20300;-72
2022/07/04 09:19:19;;;;;;;7.60;4.75;;;;;;;31.43;32.47;97189.19;5050923;28;20304;-72
2022/07/04 09:21:48;;;;;;;4.75;4.28;;;;;;;31.55;32.35;97186.81;5068869;28;20185;-72
2022/07/04 09:24:54;;;;;;;8.47;4.80;;;;;;;31.74;32.38;97186.88;5068744;28;20219;-71
2022/07/04 09:27:37;;;;;;;9.43;5.55;;;;;;;32.12;32.03;97178.44;5034801;28;20581;-71
2022/07/04 09:30:05;;;;;;;8.07;4.68;;;;;;;32.01;31.88;97180.66;5050249;28;20712;-72
2022/07/04 09:32:46;;;;;;;8.10;3.90;;;;;;;31.36;32.24;97180.28;5051159;28;20189;-71
2022/07/04 09:35:18;;;;;;;7.93;3.80;;;;;;;31.17;32.53;97195.16;5068567;28;20682;-72
2022/07/04 09:37:47;;;;;;;12.60;4.63;;;;;;;31.24;32.64;97185.31;5068122;28;20224;-72
2022/07/04 09:40:20;;;;;;;5.53;4.10;;;;;;;30.92;33.35;97180.56;5034038;28;20203;-69
2022/07/04 09:42:48;;;;;;;10.80;4.60;;;;;;;31.32;32.95;97173.66;5050030;28;20193;-70
2022/07/04 09:45:20;;;;;;;8.03;3.80;;;;;;;31.21;33.28;97164.31;5049805;28;20401;-71
2022/07/04 09:48:00;;;;;;;7.85;3.80;;;;;;;30.97;33.57;97170.13;5049747;28;20196;-71
2022/07/04 09:50:30;;;;;;;7.23;4.23;;;;;;;30.56;33.32;97173.63;5050919;28;20233;-70
2022/07/04 09:52:59;;;;;;;9.07;4.50;;;;;;;30.87;33.37;97177.63;5068134;28;20178;-71
2022/07/04 09:55:30;;;;;;;8.07;4.60;;;;;;;31.00;33.22;97167.03;5033206;28;20224;-71
2022/07/04 09:58:05;;;;;;;5.27;3.90;;;;;;;30.84;33.37;97161.09;5033740;28;20568;-71
2022/07/04 10:00:40;;;;;;;6.73;3.77;;;;;;;30.91;32.95;97172.72;5068071;28;20193;-71
2022/07/04 10:03:19;;;;;;;5.53;3.67;;;;;;;31.11;33.96;97168.34;5067713;28;20676;-70
2022/07/04 10:05:47;;;;;;;7.17;4.23;;;;;;;31.29;32.96;97166.84;5067583;28;20201;-70
2022/07/04 10:08:21;;;;;;;9.63;4.13;;;;;;;31.09;33.10;97171.22;5050954;28;20218;-70
2022/07/04 10:10:48;;;;;;;6.47;3.77;;;;;;;31.19;33.57;97176.22;5068316;28;20306;-70
2022/07/04 10:13:15;;;;;;;6.83;4.20;;;;;;;31.35;33.20;97175.91;5049789;28;20284;-71
2022/07/04 10:15:42;;;;;;;8.47;4.27;;;;;;;31.44;33.11;97169.44;5050340;28;20251;-71
2022/07/04 10:18:10;;;;;;;6.83;4.43;;;;;;;31.68;32.31;97166.25;5067746;28;20186;-71
2022/07/04 10:20:37;;;;;;;4.77;3.90;;;;;;;31.78;32.43;97160.56;5067813;28;20275;-71
2022/07/04 10:23:04;;;;;;;7.80;5.57;;;;;;;31.90;31.89;97170.47;5067516;28;20284;-70
2022/07/04 10:25:31;;;;;;;6.57;4.37;;;;;;;31.66;32.61;97162.94;5049546;28;20190;-72
2022/07/04 10:27:58;;;;;;;5.47;4.50;;;;;;;31.67;32.58;97156.59;5067930;28;20201;-70
2022/07/04 10:30:33;;;;;;;7.47;4.20;;;;;;;31.95;32.10;97152.00;5067291;28;20225;-70
2022/07/04 10:33:09;;;;;;;7.63;4.13;;;;;;;32.01;32.16;97155.72;5067454;28;20225;-70
2022/07/04 10:35:56;;;;;;;6.22;4.28;;;;;;;32.10;31.73;97154.50;5067023;28;20200;-71
2022/07/04 10:38:30;;;;;;;8.63;4.27;;;;;;;32.06;31.58;97159.47;5050114;28;20255;-71
2022/07/04 10:41:01;;;;;;;7.23;4.07;;;;;;;32.35;31.37;97152.09;5067946;28;20278;-71
2022/07/04 10:43:33;;;;;;;9.27;4.10;;;;;;;32.11;32.26;97160.72;5067313;28;20200;-71
2022/07/04 10:46:34;;;;;;;5.70;4.03;;;;;;;32.19;32.03;97155.16;5033258;28;20197;-71
2022/07/04 10:49:18;;;;;;;5.10;4.07;;;;;;;32.05;32.32;97130.16;5032923;28;20221;-71
2022/07/04 10:51:50;;;;;;;4.93;3.72;;;;;;;32.31;31.70;97140.13;5048793;28;20221;-71
2022/07/04 10:54:21;;;;;;;4.75;3.40;;;;;;;32.44;31.63;97132.91;5049428;28;20190;-71
2022/07/04 10:56:56;;;;;;;4.20;3.80;;;;;;;32.55;30.96;97131.53;5048775;28;20746;-71
2022/07/04 10:59:26;;;;;;;5.00;4.50;;;;;;;32.66;31.42;97128.25;5032852;28;20211;-71
2022/07/04 11:02:01;;;;;;;5.47;4.30;;;;;;;32.92;31.34;97133.59;5049391;28;20192;-71
2022/07/04 11:04:54;;;;;;;7.00;4.15;;;;;;;32.87;31.51;97128.03;5048695;28;20223;-74
2022/07/04 11:07:23;;;;;;;6.80;4.35;;;;;;;33.06;30.94;97129.06;5049210;28;20193;-71
2022/07/04 11:10:12;;;;;;;6.53;3.80;;;;;;;32.81;31.06;97131.53;5066438;28;20217;-71
2022/07/04 11:12:59;;;;;;;8.57;3.25;;;;;;;31.85;32.34;97124.72;5049166;28;20189;-72
2022/07/04 11:15:32;;;;;;;5.95;3.70;;;;;;;31.88;32.52;97136.88;5066835;28;20200;-71
2022/07/04 11:18:08;;;;;;;6.20;4.25;;;;;;;31.87;32.78;97089.69;5048328;28;20288;-71
2022/07/04 11:20:38;;;;;;;8.02;4.70;;;;;;;32.43;32.04;97123.25;5032270;28;20185;-71
2022/07/04 11:23:12;;;;;;;7.40;4.70;;;;;;;32.78;31.37;97110.50;5032571;28;20209;-72
2022/07/04 11:25:45;;;;;;;6.88;4.10;;;;;;;32.71;31.90;97120.38;5015806;28;20197;-71
2022/07/04 11:28:36;;;;;;;8.45;4.32;;;;;;;32.64;31.04;97115.03;5048371;28;20200;-71
2022/07/04 11:31:13;;;;;;;7.22;3.70;;;;;;;32.68;32.12;97110.91;5049806;28;20189;-71
2022/07/04 11:33:43;;;;;;;5.32;3.70;;;;;;;32.51;31.84;97108.81;5049328;28;20194;-71
2022/07/04 11:36:20;;;;;;;5.65;4.00;;;;;;;32.36;31.73;97108.16;5047843;28;20229;-71
2022/07/04 11:39:02;;;;;;;5.97;3.42;;;;;;;32.21;31.50;97120.94;5066407;28;20777;-70
2022/07/04 11:47:36;;;;;;;9.70;4.35;;;;;;;32.91;31.60;97097.06;4948891;28;20227;-70
2022/07/04 11:50:13;;;;;;;5.95;4.72;;;;;;;33.08;30.86;97100.19;5019711;28;20248;-70
2022/07/04 11:52:53;;;;;;;9.15;4.15;;;;;;;33.27;31.05;97092.06;5065928;28;20188;-71
2022/07/04 11:55:53;;;;;;;5.40;3.92;;;;;;;33.07;30.71;97088.59;5034927;28;20189;-71
2022/07/04 11:58:24;;;;;;;8.43;3.70;;;;;;;33.06;31.31;97103.06;5030625;28;20696;-70
2022/07/04 12:00:51;;;;;;;5.22;3.80;;;;;;;33.12;30.89;97096.03;5066361;28;20276;-71
2022/07/04 12:03:19;;;;;;;6.35;4.32;;;;;;;32.89;31.24;97094.56;5031154;28;20185;-70